Terminal Aerodrome Forecast
Issued by NWS

Home | Current Version | Previous Version | Text Only | Print | Product List | Glossary On
Versions: 1 2 3 4 5 6 7 8 9 10 11 12 13 14 15 16 17 18 19 20
000
FTUS41 KBGM 261127
TAFELM
TAF
KELM 261127Z 2612/2712 00000KT P6SM OVC025
      TEMPO 2612/2614 OVC015
     FM261600 19005KT P6SM BKN050
     FM262200 VRB03KT P6SM SCT060
     FM270800 00000KT P6SM BKN030=

USA.gov is the U.S. government's official web portal to all federal, state and local government web resources and services.